Rossland, Canada
Current Conditions -  °F | °C
As of 10:00 AM on Monday 24 Nov 2014 (Local Time) from CYCG Reporting Station
Overcast Overcast  
Wind Chill: 24°   Ceiling: 8500
Heat Index: 32°   Visibility: 15mi
Dew Point: 30°   Wind: 9mph
Humidity: 93%   Direction: 160°SSE
Pressure: 30.34"   Gusts: NA
Location:  49.08°N, 117.8°W
Report Text: CYCG 241800Z 16008KT 15SM FEW008 SCT014 OVC085 00/M01 A3034 RMK SF1SC2AC5 SLP294
Loading
Personal Weather Stations






























Interactive Weather Map New forecast layout! Learn more

10-Day Weather Forecast

Advertisements
Track Severe Weather on mobile